createdAt,value
2019-05-19T00:00:33.006Z,1.10
2019-05-19T00:03:02.562Z,1.37
2019-05-19T00:05:32.201Z,1.30
2019-05-19T00:08:02.062Z,1.37
2019-05-19T00:10:31.952Z,1.27
2019-05-19T00:13:01.505Z,1.23
2019-05-19T00:15:31.124Z,1.60
2019-05-19T00:18:00.840Z,1.30
2019-05-19T00:20:30.487Z,1.43
2019-05-19T00:23:00.392Z,1.50
2019-05-19T00:25:30.641Z,1.40
2019-05-19T00:28:00.621Z,1.60
2019-05-19T00:30:30.437Z,1.50
2019-05-19T00:33:00.241Z,2.10
2019-05-19T00:35:29.831Z,1.23
2019-05-19T00:37:59.460Z,3.27
2019-05-19T00:40:28.995Z,2.87
2019-05-19T00:42:58.864Z,1.30
2019-05-19T00:45:28.564Z,2.37
2019-05-19T00:47:58.493Z,1.30
2019-05-19T00:50:28.239Z,2.43
2019-05-19T00:52:58.453Z,1.50
2019-05-19T00:55:29.402Z,1.87
2019-05-19T00:58:01.003Z,1.97
2019-05-19T01:00:30.692Z,1.70
2019-05-19T01:03:00.349Z,1.40
2019-05-19T01:05:29.885Z,1.97
2019-05-19T01:08:00.062Z,1.60
2019-05-19T01:10:30.177Z,2.33
2019-05-19T01:13:00.049Z,1.57
2019-05-19T01:15:30.046Z,1.43
2019-05-19T01:17:59.673Z,1.97
2019-05-19T01:20:29.622Z,3.33
2019-05-19T01:22:59.274Z,1.47
2019-05-19T01:25:28.834Z,1.60
2019-05-19T01:27:58.414Z,1.50
2019-05-19T01:30:28.067Z,1.90
2019-05-19T01:32:57.673Z,3.93
2019-05-19T01:35:27.699Z,1.50
2019-05-19T01:37:58.407Z,1.70
2019-05-19T01:40:28.048Z,1.83
2019-05-19T01:42:58.444Z,2.13
2019-05-19T01:45:28.065Z,1.43
2019-05-19T01:47:57.616Z,1.53
2019-05-19T01:50:27.246Z,1.80
2019-05-19T01:52:56.785Z,1.83
2019-05-19T01:55:26.360Z,1.80
2019-05-19T01:57:55.961Z,1.70
2019-05-19T02:00:25.685Z,1.60
2019-05-19T02:02:55.257Z,1.70
2019-05-19T02:05:24.817Z,1.93
2019-05-19T02:07:54.700Z,2.00
2019-05-19T02:10:24.613Z,1.73
2019-05-19T02:12:54.152Z,1.73
2019-05-19T02:15:24.056Z,1.60
2019-05-19T02:18:05.509Z,2.20
2019-05-19T02:20:35.049Z,1.93
2019-05-19T02:23:04.933Z,1.90
2019-05-19T02:25:35.414Z,2.50
2019-05-19T02:28:12.186Z,2.10
2019-05-19T02:30:42.482Z,2.00
2019-05-19T02:33:12.101Z,3.57
2019-05-19T02:35:41.970Z,2.40
2019-05-19T02:38:11.631Z,2.30
2019-05-19T02:40:43.645Z,1.70
2019-05-19T02:43:15.199Z,1.60
2019-05-19T02:45:45.822Z,2.80
2019-05-19T02:48:15.827Z,1.60
2019-05-19T02:50:52.249Z,1.73
2019-05-19T02:53:20.302Z,2.03
2019-05-19T02:55:50.909Z,1.80
2019-05-19T02:58:21.008Z,2.10
2019-05-19T03:00:50.560Z,2.13
2019-05-19T03:03:20.223Z,4.17
2019-05-19T03:05:50.261Z,1.97
2019-05-19T03:08:19.822Z,2.10
2019-05-19T03:10:49.678Z,1.93
2019-05-19T03:13:19.256Z,1.97
2019-05-19T03:15:48.837Z,1.80
2019-05-19T03:18:18.577Z,2.43
2019-05-19T03:20:48.109Z,4.00
2019-05-19T03:23:17.653Z,2.33
2019-05-19T03:25:47.540Z,2.53
2019-05-19T03:28:17.155Z,3.40
2019-05-19T03:31:18.080Z,2.10
2019-05-19T03:33:49.013Z,2.47
2019-05-19T03:36:18.565Z,2.20
2019-05-19T03:38:48.228Z,2.73
2019-05-19T03:41:17.780Z,2.40
2019-05-19T03:43:47.632Z,2.07
2019-05-19T03:46:17.227Z,2.17
2019-05-19T03:48:46.780Z,2.77
2019-05-19T03:51:29.997Z,2.07
2019-05-19T03:53:47.897Z,2.10
2019-05-19T03:56:17.452Z,2.60
2019-05-19T03:58:47.008Z,2.50
2019-05-19T04:01:16.641Z,2.27
2019-05-19T04:03:46.205Z,2.80
2019-05-19T04:06:15.840Z,2.10
2019-05-19T04:08:45.524Z,5.50
2019-05-19T04:11:15.054Z,2.17
2019-05-19T04:13:44.601Z,2.97
2019-05-19T04:16:14.192Z,3.17
2019-05-19T04:18:43.733Z,2.30
2019-05-19T04:21:13.598Z,2.63
2019-05-19T04:23:43.146Z,2.50
2019-05-19T04:26:12.677Z,1.97
2019-05-19T04:28:42.298Z,2.10
2019-05-19T04:31:11.863Z,2.30
2019-05-19T04:33:41.429Z,2.50
2019-05-19T04:36:10.995Z,2.13
2019-05-19T04:38:40.817Z,2.10
2019-05-19T04:41:10.382Z,2.40
2019-05-19T04:43:39.938Z,2.40
2019-05-19T04:46:09.829Z,2.70
2019-05-19T04:48:39.386Z,2.50
2019-05-19T04:51:08.960Z,2.77
2019-05-19T04:53:38.511Z,2.83
2019-05-19T04:56:08.461Z,2.37
2019-05-19T04:58:38.016Z,2.37
2019-05-19T05:01:07.565Z,2.77
2019-05-19T05:03:37.389Z,2.37
2019-05-19T05:06:06.946Z,2.30
2019-05-19T05:08:36.494Z,2.30
2019-05-19T05:11:06.064Z,2.40
2019-05-19T05:13:36.146Z,1.57
2019-05-19T05:16:05.713Z,2.20
2019-05-19T05:18:35.303Z,2.60
2019-05-19T05:21:05.041Z,2.50
2019-05-19T05:23:34.949Z,3.00
2019-05-19T05:26:04.492Z,3.50
2019-05-19T05:28:34.055Z,2.57
2019-05-19T05:31:03.943Z,2.20
2019-05-19T05:33:33.580Z,2.10
2019-05-19T05:36:03.220Z,2.60
2019-05-19T05:38:33.405Z,2.50
2019-05-19T05:41:02.977Z,2.50
2019-05-19T05:43:32.533Z,2.63
2019-05-19T05:46:02.738Z,2.47
2019-05-19T05:48:32.293Z,3.90
2019-05-19T05:51:01.848Z,2.83
2019-05-19T05:53:31.777Z,2.17
2019-05-19T05:56:01.568Z,2.50
2019-05-19T05:58:31.138Z,2.73
2019-05-19T06:01:00.957Z,4.03
2019-05-19T06:03:30.502Z,3.77
2019-05-19T06:06:00.135Z,2.37
2019-05-19T06:08:30.041Z,2.77
2019-05-19T06:10:59.670Z,3.00
2019-05-19T06:13:29.209Z,2.47
2019-05-19T06:15:59.545Z,3.60
2019-05-19T06:18:29.165Z,3.63
2019-05-19T06:20:58.965Z,2.90
2019-05-19T06:23:28.604Z,2.53
2019-05-19T06:25:58.518Z,2.80
2019-05-19T06:28:28.061Z,2.50
2019-05-19T06:30:57.625Z,2.67
2019-05-19T06:33:27.172Z,3.97
2019-05-19T06:35:56.788Z,2.63
2019-05-19T06:38:26.369Z,3.37
2019-05-19T06:40:55.940Z,2.73
2019-05-19T06:43:25.721Z,3.13
2019-05-19T06:45:55.543Z,3.60
2019-05-19T06:48:25.222Z,3.67
2019-05-19T06:50:55.167Z,3.93
2019-05-19T06:53:26.056Z,3.30
2019-05-19T06:55:55.924Z,3.80
2019-05-19T06:58:25.884Z,3.70
2019-05-19T07:00:58.643Z,3.27
2019-05-19T07:03:26.761Z,3.67
2019-05-19T07:05:56.338Z,3.20
2019-05-19T07:08:25.984Z,3.70
2019-05-19T07:10:55.916Z,3.47
2019-05-19T07:13:25.496Z,3.30
2019-05-19T07:15:55.085Z,3.10
2019-05-19T07:18:24.719Z,3.70
2019-05-19T07:20:54.265Z,2.97
2019-05-19T07:23:28.117Z,3.53
2019-05-19T07:25:55.216Z,3.47
2019-05-19T07:28:24.781Z,3.60
2019-05-19T07:30:54.332Z,3.03
2019-05-19T07:33:23.876Z,3.97
2019-05-19T07:35:54.048Z,4.30
2019-05-19T07:38:25.779Z,3.07
2019-05-19T07:40:55.407Z,3.40
2019-05-19T07:43:25.048Z,4.77
2019-05-19T07:45:54.700Z,3.93
2019-05-19T07:48:24.612Z,3.43
2019-05-19T07:50:54.148Z,3.73
2019-05-19T07:53:23.692Z,3.70
2019-05-19T07:55:53.340Z,3.47
2019-05-19T07:58:22.892Z,4.57
2019-05-19T08:00:52.853Z,5.70
2019-05-19T08:03:22.412Z,5.50
2019-05-19T08:05:51.961Z,3.43
2019-05-19T08:08:21.824Z,2.97
2019-05-19T08:10:51.780Z,3.13
2019-05-19T08:13:21.324Z,3.90
2019-05-19T08:15:50.876Z,3.83
2019-05-19T08:18:20.622Z,3.67
2019-05-19T08:20:50.417Z,2.77
2019-05-19T08:23:20.433Z,2.70
2019-05-19T08:25:49.990Z,4.13
2019-05-19T08:28:19.644Z,3.73
2019-05-19T08:30:49.277Z,2.73
2019-05-19T08:33:19.298Z,3.60
2019-05-19T08:35:48.852Z,3.47
2019-05-19T08:38:18.624Z,3.43
2019-05-19T08:40:48.529Z,3.83
2019-05-19T08:43:18.114Z,3.10
2019-05-19T08:45:47.961Z,5.33
2019-05-19T08:48:17.817Z,4.73
2019-05-19T08:50:47.765Z,4.37
2019-05-19T08:53:17.987Z,5.00
2019-05-19T08:55:47.677Z,5.93
2019-05-19T08:58:17.993Z,4.97
2019-05-19T09:00:48.005Z,4.83
2019-05-19T09:03:17.786Z,6.60
2019-05-19T09:05:48.048Z,5.40
2019-05-19T09:08:18.533Z,3.83
2019-05-19T09:10:48.789Z,6.27
2019-05-19T09:13:18.913Z,5.00
2019-05-19T09:15:48.813Z,7.37
2019-05-19T09:18:18.373Z,5.40
2019-05-19T09:20:47.945Z,5.60
2019-05-19T09:23:17.592Z,5.37
2019-05-19T09:25:47.850Z,4.20
2019-05-19T09:28:17.399Z,4.60
2019-05-19T09:30:46.969Z,5.57
2019-05-19T09:33:16.514Z,4.93
2019-05-19T09:35:46.380Z,4.43
2019-05-19T09:38:24.101Z,4.33
2019-05-19T09:40:53.704Z,5.50
2019-05-19T09:43:23.704Z,4.70
2019-05-19T09:45:53.264Z,4.23
2019-05-19T09:48:22.855Z,3.87
2019-05-19T09:50:52.401Z,4.57
2019-05-19T09:53:21.975Z,4.43
2019-05-19T09:55:51.737Z,4.70
2019-05-19T09:58:21.754Z,4.60
2019-05-19T10:00:51.581Z,5.53
2019-05-19T10:03:21.132Z,5.27
2019-05-19T10:05:51.092Z,12.60
2019-05-19T10:08:24.751Z,5.10
2019-05-19T10:11:20.645Z,5.00
2019-05-19T10:13:50.637Z,4.73
2019-05-19T10:16:22.438Z,7.20
2019-05-19T10:18:54.320Z,4.37
2019-05-19T10:21:23.900Z,4.60
2019-05-19T10:23:53.441Z,4.57
2019-05-19T10:26:22.991Z,4.77
2019-05-19T10:28:52.562Z,4.90
2019-05-19T10:31:22.108Z,4.87
2019-05-19T10:33:51.661Z,4.93
2019-05-19T10:36:21.525Z,4.67
2019-05-19T10:38:51.081Z,4.20
2019-05-19T10:41:20.998Z,4.33
2019-05-19T10:44:00.868Z,4.33
2019-05-19T10:46:31.740Z,4.37
2019-05-19T10:49:01.695Z,8.00
2019-05-19T10:51:31.253Z,4.67
2019-05-19T10:54:00.840Z,4.80
2019-05-19T10:56:30.665Z,5.00
2019-05-19T10:59:00.229Z,4.50
2019-05-19T11:01:29.867Z,4.23
2019-05-19T11:03:59.439Z,3.63
2019-05-19T11:06:29.068Z,4.57
2019-05-19T11:08:58.675Z,5.00
2019-05-19T11:11:28.449Z,5.10
2019-05-19T11:13:58.298Z,4.50
2019-05-19T11:16:27.860Z,4.20
2019-05-19T11:19:00.862Z,4.40
2019-05-19T11:21:32.930Z,5.47
2019-05-19T11:24:02.834Z,4.57
2019-05-19T11:26:32.380Z,4.60
2019-05-19T11:29:02.208Z,4.70
2019-05-19T11:31:31.844Z,9.20
2019-05-19T11:34:01.985Z,7.70
2019-05-19T11:36:31.571Z,5.00
2019-05-19T11:39:01.841Z,4.40
2019-05-19T11:41:31.713Z,5.10
2019-05-19T11:44:01.561Z,5.53
2019-05-19T11:46:31.121Z,5.07
2019-05-19T11:49:00.756Z,4.50
2019-05-19T11:51:30.621Z,4.57
2019-05-19T11:54:00.565Z,4.77
2019-05-19T11:56:30.205Z,4.63
2019-05-19T11:58:59.810Z,4.47
2019-05-19T12:01:29.690Z,4.70
2019-05-19T12:04:00.360Z,4.10
2019-05-19T12:06:38.605Z,4.73
2019-05-19T12:09:01.472Z,3.83
2019-05-19T12:11:31.052Z,3.83
2019-05-19T12:14:00.669Z,5.03
2019-05-19T12:16:30.244Z,4.83
2019-05-19T12:18:59.844Z,4.40
2019-05-19T12:21:29.713Z,3.97
2019-05-19T12:23:59.280Z,4.07
2019-05-19T12:26:29.511Z,4.00
2019-05-19T12:28:59.350Z,3.83
2019-05-19T12:31:29.165Z,4.33
2019-05-19T12:33:59.085Z,4.07
2019-05-19T12:36:28.901Z,5.70
2019-05-19T12:38:59.020Z,3.47
2019-05-19T12:41:28.617Z,5.30
2019-05-19T12:43:59.142Z,3.83
2019-05-19T12:46:28.772Z,3.37
2019-05-19T12:48:58.354Z,3.53
2019-05-19T12:51:28.139Z,3.43
2019-05-19T12:53:57.973Z,3.67
2019-05-19T12:56:39.152Z,4.00
2019-05-19T12:58:59.112Z,4.20
2019-05-19T13:01:28.988Z,3.07
2019-05-19T13:03:58.857Z,3.87
2019-05-19T13:06:28.573Z,3.87
2019-05-19T13:08:59.376Z,3.30
2019-05-19T13:11:29.318Z,3.77
2019-05-19T13:13:58.981Z,3.90
2019-05-19T13:16:28.591Z,4.10
2019-05-19T13:18:58.411Z,3.90
2019-05-19T13:21:29.979Z,4.23
2019-05-19T13:23:59.914Z,3.00
2019-05-19T13:26:30.001Z,3.43
2019-05-19T13:28:59.689Z,3.50
2019-05-19T13:31:29.253Z,3.80
2019-05-19T13:33:59.051Z,3.97
2019-05-19T13:36:28.680Z,3.43
2019-05-19T13:38:58.332Z,3.74
2019-05-19T13:41:29.598Z,3.60
2019-05-19T13:43:59.793Z,3.57
2019-05-19T13:46:30.118Z,3.40
2019-05-19T13:49:02.828Z,3.60
2019-05-19T13:51:32.522Z,3.47
2019-05-19T13:54:02.588Z,3.40
2019-05-19T13:56:32.292Z,3.23
2019-05-19T13:59:02.323Z,3.17
2019-05-19T14:01:35.138Z,3.23
2019-05-19T14:04:05.188Z,3.53
2019-05-19T14:06:34.832Z,3.57
2019-05-19T14:09:06.316Z,7.23
2019-05-19T14:11:35.925Z,3.30
2019-05-19T14:14:05.653Z,3.23
2019-05-19T14:16:35.232Z,2.93
2019-05-19T14:19:05.284Z,4.10
2019-05-19T14:21:35.125Z,3.53
2019-05-19T14:24:04.753Z,3.60
2019-05-19T14:26:34.312Z,3.50
2019-05-19T14:29:03.946Z,4.20
2019-05-19T14:31:33.521Z,8.20
2019-05-19T14:34:03.305Z,9.33
2019-05-19T14:36:34.961Z,4.20
2019-05-19T14:39:06.262Z,4.30
2019-05-19T14:41:43.506Z,4.40
2019-05-19T14:44:13.084Z,4.00
2019-05-19T14:46:43.047Z,3.97
2019-05-19T14:49:12.722Z,3.87
2019-05-19T14:51:42.348Z,3.77
2019-05-19T14:54:11.900Z,3.80
2019-05-19T14:56:41.457Z,5.10
2019-05-19T14:59:11.380Z,7.13
2019-05-19T15:01:40.933Z,4.40
2019-05-19T15:04:10.777Z,3.30
2019-05-19T15:06:40.678Z,4.03
2019-05-19T15:09:10.612Z,3.50
2019-05-19T15:11:40.636Z,3.43
2019-05-19T15:14:10.307Z,3.40
2019-05-19T15:16:40.558Z,5.03
2019-05-19T15:19:10.126Z,3.40
2019-05-19T15:21:41.627Z,4.13
2019-05-19T15:24:11.729Z,2.50
2019-05-19T15:26:41.324Z,3.57
2019-05-19T15:29:10.898Z,2.33
2019-05-19T15:31:40.776Z,4.13
2019-05-19T15:34:11.181Z,3.80
2019-05-19T15:36:41.108Z,3.30
2019-05-19T15:39:14.016Z,3.20
2019-05-19T15:41:42.380Z,2.80
2019-05-19T15:44:11.952Z,2.90
2019-05-19T15:46:42.115Z,4.63
2019-05-19T15:49:12.245Z,2.97
2019-05-19T15:51:58.923Z,4.50
2019-05-19T15:54:13.771Z,3.40
2019-05-19T15:56:43.388Z,4.27
2019-05-19T15:59:12.980Z,4.07
2019-05-19T16:01:42.570Z,4.17
2019-05-19T16:04:12.493Z,3.57
2019-05-19T16:06:42.409Z,4.70
2019-05-19T16:09:12.124Z,4.07
2019-05-19T16:11:41.800Z,4.57
2019-05-19T16:14:11.837Z,3.80
2019-05-19T16:16:41.399Z,4.33
2019-05-19T16:19:11.273Z,3.93
2019-05-19T16:21:40.846Z,4.13
2019-05-19T16:24:10.467Z,3.80
2019-05-19T16:26:40.298Z,4.27
2019-05-19T16:29:10.303Z,4.33
2019-05-19T16:31:39.852Z,5.57
2019-05-19T16:34:09.447Z,3.87
2019-05-19T16:36:39.008Z,4.00
2019-05-19T16:39:09.049Z,4.10
2019-05-19T16:41:38.595Z,4.20
2019-05-19T16:44:08.156Z,4.13
2019-05-19T16:46:37.748Z,4.63
2019-05-19T16:49:07.745Z,3.70
2019-05-19T16:51:37.313Z,4.30
2019-05-19T16:54:11.245Z,3.60
2019-05-19T16:56:40.877Z,4.53
2019-05-19T16:59:10.801Z,5.10
2019-05-19T17:01:42.445Z,4.30
2019-05-19T17:04:12.193Z,3.87
2019-05-19T17:06:42.908Z,3.90
2019-05-19T17:09:15.042Z,4.53
2019-05-19T17:11:45.516Z,4.10
2019-05-19T17:14:15.288Z,3.73
2019-05-19T17:16:54.171Z,4.63
2019-05-19T17:19:24.062Z,3.73
2019-05-19T17:21:55.057Z,4.10
2019-05-19T17:24:25.466Z,3.43
2019-05-19T17:26:55.322Z,3.70
2019-05-19T17:29:25.356Z,4.13
2019-05-19T17:32:05.561Z,3.60
2019-05-19T17:34:26.176Z,4.70
2019-05-19T17:36:55.729Z,3.47
2019-05-19T17:39:25.699Z,4.63
2019-05-19T17:41:55.556Z,3.70
2019-05-19T17:44:25.836Z,3.97
2019-05-19T17:46:55.483Z,3.70
2019-05-19T17:49:25.449Z,3.93
2019-05-19T17:51:56.122Z,4.90
2019-05-19T17:54:26.084Z,4.33
2019-05-19T17:56:57.720Z,3.60
2019-05-19T17:59:27.972Z,3.53
2019-05-19T18:01:57.568Z,3.67
2019-05-19T18:04:27.669Z,5.80
2019-05-19T18:06:57.277Z,3.33
2019-05-19T18:09:27.113Z,4.73
2019-05-19T18:11:57.013Z,5.23
2019-05-19T18:14:27.591Z,3.62
2019-05-19T18:16:57.872Z,4.50
2019-05-19T18:19:28.115Z,3.90
2019-05-19T18:21:58.452Z,3.43
2019-05-19T18:24:28.250Z,3.77
2019-05-19T18:26:58.090Z,4.73
2019-05-19T18:29:31.226Z,3.50
2019-05-19T18:31:58.957Z,3.87
2019-05-19T18:34:28.743Z,3.67
2019-05-19T18:36:58.364Z,4.77
2019-05-19T18:39:28.017Z,3.53
2019-05-19T18:41:58.070Z,4.87
2019-05-19T18:44:28.045Z,4.07
2019-05-19T18:46:58.061Z,3.43
2019-05-19T18:49:28.221Z,3.87
2019-05-19T18:51:58.008Z,3.60
2019-05-19T18:54:28.118Z,4.03
2019-05-19T18:56:58.045Z,4.30
2019-05-19T18:59:27.625Z,4.23
2019-05-19T19:01:57.344Z,4.03
2019-05-19T19:04:26.942Z,6.30
2019-05-19T19:06:56.496Z,5.70
2019-05-19T19:09:27.267Z,4.80
2019-05-19T19:12:07.173Z,6.77
2019-05-19T19:14:37.046Z,4.17
2019-05-19T19:17:07.260Z,4.83
2019-05-19T19:19:36.834Z,4.73
2019-05-19T19:22:06.660Z,4.03
2019-05-19T19:24:38.539Z,4.53
2019-05-19T19:27:07.769Z,4.67
2019-05-19T19:29:37.314Z,4.63
2019-05-19T19:32:06.980Z,4.93
2019-05-19T19:34:36.613Z,4.87
2019-05-19T19:37:06.171Z,4.23
2019-05-19T19:39:38.165Z,4.64
2019-05-19T19:42:07.739Z,3.83
2019-05-19T19:44:37.957Z,5.03
2019-05-19T19:47:15.377Z,5.10
2019-05-19T19:49:45.238Z,4.10
2019-05-19T19:52:14.819Z,4.73
2019-05-19T19:54:53.697Z,5.10
2019-05-19T19:57:23.261Z,4.27
2019-05-19T19:59:53.037Z,4.70
2019-05-19T20:02:22.672Z,4.40
2019-05-19T20:04:52.274Z,4.87
2019-05-19T20:07:21.825Z,4.73
2019-05-19T20:09:51.393Z,4.80
2019-05-19T20:12:21.013Z,5.93
2019-05-19T20:14:50.841Z,5.43
2019-05-19T20:17:20.394Z,4.37
2019-05-19T20:19:50.029Z,4.93
2019-05-19T20:22:19.582Z,6.43
2019-05-19T20:24:49.207Z,5.80
2019-05-19T20:27:19.073Z,5.13
2019-05-19T20:29:49.101Z,6.33
2019-05-19T20:32:19.317Z,5.17
2019-05-19T20:34:49.229Z,5.40
2019-05-19T20:37:18.905Z,5.23
2019-05-19T20:39:48.453Z,5.23
2019-05-19T20:42:18.016Z,6.23
2019-05-19T20:44:47.585Z,5.07
2019-05-19T20:47:17.212Z,6.33
2019-05-19T20:49:47.074Z,6.10
2019-05-19T20:52:16.986Z,7.53
2019-05-19T20:54:46.544Z,5.10
2019-05-19T20:57:16.106Z,4.97
2019-05-19T20:59:46.208Z,5.17
2019-05-19T21:02:15.788Z,5.50
2019-05-19T21:04:48.849Z,5.39
2019-05-19T21:07:19.026Z,6.10
2019-05-19T21:09:52.595Z,7.07
2019-05-19T21:12:22.149Z,6.93
2019-05-19T21:14:51.724Z,6.40
2019-05-19T21:17:32.495Z,6.60
2019-05-19T21:20:02.844Z,6.70
2019-05-19T21:22:32.949Z,6.25
2019-05-19T21:25:02.573Z,6.23
2019-05-19T21:27:32.393Z,5.83
2019-05-19T21:30:14.864Z,5.40
2019-05-19T21:32:44.773Z,6.83
2019-05-19T21:35:14.464Z,6.33
2019-05-19T21:37:44.044Z,5.27
2019-05-19T21:40:13.866Z,5.00
2019-05-19T21:42:43.772Z,7.17
2019-05-19T21:45:13.841Z,6.90
2019-05-19T21:47:43.760Z,7.23
2019-05-19T21:50:13.690Z,6.83
2019-05-19T21:52:43.793Z,6.30
2019-05-19T21:55:14.032Z,5.93
2019-05-19T21:57:43.962Z,6.83
2019-05-19T22:00:15.617Z,5.10
2019-05-19T22:02:45.692Z,6.10
2019-05-19T22:05:16.566Z,5.90
2019-05-19T22:08:11.524Z,7.57
2019-05-19T22:10:41.212Z,7.73
2019-05-19T22:13:10.761Z,5.00
2019-05-19T22:15:40.661Z,8.60
2019-05-19T22:18:10.300Z,6.30
2019-05-19T22:20:40.220Z,5.10
2019-05-19T22:23:10.100Z,5.63
2019-05-19T22:25:39.729Z,7.20
2019-05-19T22:28:09.740Z,7.93
2019-05-19T22:30:39.418Z,6.40
2019-05-19T22:33:09.052Z,6.10
2019-05-19T22:35:39.255Z,7.20
2019-05-19T22:38:09.579Z,7.13
2019-05-19T22:40:39.617Z,6.00
2019-05-19T22:43:09.193Z,6.83
2019-05-19T22:45:38.796Z,7.43
2019-05-19T22:48:08.350Z,6.83
2019-05-19T22:50:37.930Z,7.33
2019-05-19T22:53:11.608Z,6.17
2019-05-19T22:55:41.156Z,8.27
2019-05-19T22:58:10.859Z,6.00
2019-05-19T23:00:40.737Z,6.03
2019-05-19T23:03:10.624Z,6.40
2019-05-19T23:05:40.200Z,8.93
2019-05-19T23:08:10.057Z,8.80
2019-05-19T23:10:40.034Z,7.80
2019-05-19T23:13:09.727Z,7.17
2019-05-19T23:15:39.397Z,7.57
2019-05-19T23:18:09.144Z,8.80
2019-05-19T23:20:39.736Z,7.37
2019-05-19T23:23:09.334Z,6.60
2019-05-19T23:25:39.534Z,6.93
2019-05-19T23:28:09.093Z,6.13
2019-05-19T23:30:38.985Z,9.27
2019-05-19T23:33:09.299Z,6.53
2019-05-19T23:35:38.873Z,8.33
2019-05-19T23:38:08.444Z,8.77
2019-05-19T23:40:38.408Z,7.23
2019-05-19T23:43:07.977Z,5.80
2019-05-19T23:45:37.523Z,8.00
2019-05-19T23:48:07.112Z,8.03
2019-05-19T23:50:36.669Z,7.27
2019-05-19T23:53:06.220Z,6.97
2019-05-19T23:55:35.762Z,8.87
2019-05-19T23:58:05.335Z,7.43
